Time;durP1;ratioP1;P1;durP2;ratioP2;P2;SDS_P1;SDS_P2;PMS_P1;PMS_P2;Temp;Humidity;BMP_temperature;BMP_pressure;BME280_temperature;BME280_humidity;BME280_pressure;Samples;Min_cycle;Max_cycle;Signal;HPM_P1;HPM_P2
2022/01/28 00:00:25;;;;;;;4.97;2.97;;;3.50;99.90;;;;;;6246057;23;20004;-85
2022/01/28 00:05:22;;;;;;;5.13;3.33;;;3.50;99.90;;;;;;6246030;23;20463;-85
2022/01/28 00:07:49;;;;;;;6.15;3.42;;;3.50;99.90;;;;;;6219124;23;20440;-85
2022/01/28 00:10:16;;;;;;;3.80;2.97;;;3.50;99.90;;;;;;6219075;23;20008;-85
2022/01/28 00:13:26;;;;;;;6.45;3.35;;;3.50;99.90;;;;;;6219020;23;20004;-85
2022/01/28 00:15:36;;;;;;;4.88;3.25;;;3.50;99.90;;;;;;6234645;23;20000;-85
2022/01/28 00:36:32;;;;;;;7.07;3.70;;;3.50;99.90;;;;;;6246409;23;20054;-85
2022/01/28 00:39:44;;;;;;;5.35;3.63;;;3.50;99.90;;;;;;6256028;23;20087;-87
2022/01/28 00:42:10;;;;;;;5.03;3.20;;;3.50;99.90;;;;;;6245891;23;20418;-87
2022/01/28 00:44:36;;;;;;;5.72;3.28;;;3.50;99.90;;;;;;6219104;23;20004;-87
2022/01/28 00:47:02;;;;;;;5.93;3.33;;;3.50;99.90;;;;;;6219046;23;20007;-86
2022/01/28 00:49:28;;;;;;;5.53;3.28;;;3.50;99.90;;;;;;6213778;23;20052;-87
2022/01/28 00:51:54;;;;;;;4.82;3.28;;;3.60;99.90;;;;;;6213994;23;20012;-87
2022/01/28 00:54:20;;;;;;;6.40;3.22;;;3.50;99.90;;;;;;6214081;23;20007;-87
2022/01/28 00:56:46;;;;;;;5.70;3.40;;;3.50;99.90;;;;;;6216393;23;20043;-87
2022/01/28 00:59:13;;;;;;;5.50;3.65;;;3.50;99.90;;;;;;6215673;23;20001;-87
2022/01/28 01:01:39;;;;;;;4.80;3.20;;;3.50;99.90;;;;;;6217311;23;20417;-87
2022/01/28 01:04:04;;;;;;;5.63;3.33;;;3.60;99.90;;;;;;6216081;23;20000;-87
2022/01/28 01:06:31;;;;;;;4.93;3.53;;;3.50;99.90;;;;;;6215609;23;20323;-87
2022/01/28 01:08:57;;;;;;;4.47;3.08;;;3.60;99.90;;;;;;6215741;23;20018;-87
2022/01/28 01:11:24;;;;;;;5.15;3.30;;;3.50;99.90;;;;;;6215725;23;20009;-87
2022/01/28 01:13:51;;;;;;;3.38;2.72;;;3.60;99.90;;;;;;6215650;23;20008;-87
2022/01/28 01:16:24;;;;;;;4.53;3.15;;;3.50;99.90;;;;;;6215615;23;20016;-87
2022/01/28 01:19:01;;;;;;;6.50;3.53;;;3.60;99.90;;;;;;6217144;23;20008;-87
2022/01/28 01:21:28;;;;;;;3.78;2.72;;;3.60;99.90;;;;;;6215697;23;20330;-87
2022/01/28 01:23:56;;;;;;;3.95;2.78;;;3.60;99.90;;;;;;6215535;23;19996;-86
2022/01/28 01:26:34;;;;;;;4.65;3.25;;;3.50;99.90;;;;;;6217440;23;20440;-87
2022/01/28 01:29:01;;;;;;;3.88;3.03;;;3.60;99.90;;;;;;6217202;23;20000;-87
2022/01/28 01:31:26;;;;;;;5.70;3.10;;;3.60;99.90;;;;;;6217059;23;20025;-87
2022/01/28 01:36:18;;;;;;;6.47;3.30;;;3.60;99.90;;;;;;6217357;23;20005;-86
2022/01/28 01:38:44;;;;;;;5.13;3.30;;;3.60;99.90;;;;;;6215386;23;20004;-86
2022/01/28 01:41:18;;;;;;;5.20;3.08;;;3.60;99.90;;;;;;6215477;23;20445;-87
2022/01/28 01:54:45;;;;;;;6.65;3.13;;;3.60;99.90;;;;;;6196786;23;20086;-87
2022/01/28 01:57:13;;;;;;;3.72;2.72;;;3.60;99.90;;;;;;6247106;23;20560;-87
2022/01/28 01:59:40;;;;;;;5.57;3.35;;;3.60;99.90;;;;;;6220149;23;20004;-87
2022/01/28 02:02:07;;;;;;;5.30;3.05;;;3.60;99.90;;;;;;6247075;23;19996;-87
2022/01/28 02:04:33;;;;;;;4.97;3.20;;;3.60;99.90;;;;;;6220153;23;20001;-87
2022/01/28 02:06:59;;;;;;;5.93;3.50;;;3.60;99.90;;;;;;6219978;23;20011;-87
2022/01/28 02:09:26;;;;;;;5.07;3.05;;;3.60;99.90;;;;;;6219704;23;20062;-87
2022/01/28 02:11:51;;;;;;;4.30;3.10;;;3.60;99.90;;;;;;6220161;23;20004;-87
2022/01/28 02:14:17;;;;;;;5.72;3.65;;;3.50;99.90;;;;;;6220067;23;20015;-87
2022/01/28 02:16:43;;;;;;;3.67;2.80;;;3.60;99.90;;;;;;6220039;23;20009;-87
2022/01/28 02:19:09;;;;;;;5.18;3.10;;;3.50;99.90;;;;;;6246759;23;20186;-87
2022/01/28 02:21:45;;;;;;;4.88;3.20;;;3.60;99.90;;;;;;6220167;23;20310;-88
2022/01/28 02:24:13;;;;;;;4.85;3.40;;;3.60;99.90;;;;;;6220135;23;20010;-86
2022/01/28 02:26:39;;;;;;;5.38;3.15;;;3.60;99.90;;;;;;6220015;23;20004;-87
2022/01/28 02:29:12;;;;;;;5.78;3.35;;;3.60;99.90;;;;;;6220066;23;20035;-87
2022/01/28 02:31:38;;;;;;;5.32;3.28;;;3.60;99.90;;;;;;6220012;23;20004;-87
2022/01/28 02:34:05;;;;;;;4.68;3.05;;;3.60;99.90;;;;;;6219963;23;20008;-87
2022/01/28 02:36:31;;;;;;;4.50;2.88;;;3.60;99.90;;;;;;6219879;23;20011;-88
2022/01/28 02:38:59;;;;;;;4.63;3.38;;;3.50;99.90;;;;;;6219720;23;20009;-87
2022/01/28 02:41:28;;;;;;;4.05;3.00;;;3.60;99.90;;;;;;6220182;23;19997;-87
2022/01/28 02:44:19;;;;;;;4.85;3.05;;;3.50;99.90;;;;;;6219906;23;20000;-87
2022/01/28 02:46:54;;;;;;;5.45;3.35;;;3.50;99.90;;;;;;6246048;23;19996;-87
2022/01/28 02:49:20;;;;;;;4.85;3.20;;;3.50;99.90;;;;;;6214586;23;20070;-87
2022/01/28 02:51:46;;;;;;;5.63;3.00;;;3.50;99.90;;;;;;6214686;23;20009;-87
2022/01/28 02:54:15;;;;;;;4.47;3.05;;;3.50;99.90;;;;;;6215024;23;20082;-87
2022/01/28 02:56:49;;;;;;;4.32;2.97;;;3.50;99.90;;;;;;6214718;23;20453;-87
2022/01/28 02:59:15;;;;;;;5.45;3.50;;;3.50;99.90;;;;;;6214655;23;20388;-87
2022/01/28 03:01:41;;;;;;;5.47;3.08;;;3.50;99.90;;;;;;6216156;23;19997;-87
2022/01/28 03:04:08;;;;;;;5.40;3.30;;;3.50;99.90;;;;;;6214517;23;20131;-87
2022/01/28 03:06:34;;;;;;;6.82;3.28;;;3.50;99.90;;;;;;6214519;23;20008;-87
2022/01/28 03:09:14;;;;;;;5.50;3.10;;;3.50;99.90;;;;;;6214464;23;20011;-87
2022/01/28 03:19:23;;;;;;;4.22;3.15;;;3.50;99.90;;;;;;6226247;23;20015;-87
2022/01/28 03:21:56;;;;;;;3.92;3.08;;;3.50;99.90;;;;;;6214778;23;20422;-87
2022/01/28 03:24:23;;;;;;;7.55;3.03;;;3.50;99.90;;;;;;6214423;23;20083;-87
2022/01/28 03:26:53;;;;;;;4.45;2.90;;;3.50;99.90;;;;;;6215922;23;20443;-87
2022/01/28 03:29:18;;;;;;;4.82;3.35;;;3.50;99.90;;;;;;6215851;23;20008;-87
2022/01/28 03:31:44;;;;;;;4.57;3.20;;;3.50;99.90;;;;;;6214364;23;20342;-87
2022/01/28 03:34:10;;;;;;;4.88;3.00;;;3.50;99.90;;;;;;6214334;23;20012;-87
2022/01/28 03:36:36;;;;;;;6.93;3.05;;;3.50;99.90;;;;;;6214258;23;20005;-87
2022/01/28 03:39:03;;;;;;;4.97;3.55;;;3.50;99.90;;;;;;6214215;23;20344;-87
2022/01/28 03:41:28;;;;;;;4.68;3.30;;;3.50;99.90;;;;;;6215773;23;20385;-87
2022/01/28 03:44:00;;;;;;;6.75;3.83;;;3.50;99.90;;;;;;6214305;23;20035;-87
2022/01/28 03:46:27;;;;;;;5.68;3.30;;;3.50;99.90;;;;;;6216161;23;20417;-87
2022/01/28 03:48:54;;;;;;;7.22;3.03;;;3.50;99.90;;;;;;6214060;23;20017;-87
2022/01/28 03:51:20;;;;;;;4.28;3.05;;;3.50;99.90;;;;;;6214169;23;20434;-87
2022/01/28 03:53:46;;;;;;;7.22;3.10;;;3.50;99.90;;;;;;6216095;23;20000;-87
2022/01/28 03:56:12;;;;;;;4.22;3.08;;;3.50;99.90;;;;;;6214141;23;20509;-87
2022/01/28 03:58:37;;;;;;;4.25;3.10;;;3.50;99.90;;;;;;6215958;23;20048;-87
2022/01/28 04:01:08;;;;;;;5.50;3.35;;;3.50;99.90;;;;;;6214160;23;20001;-87
2022/01/28 04:14:08;;;;;;;5.53;2.97;;;3.50;99.90;;;;;;6216206;23;20055;-87
2022/01/28 04:17:19;;;;;;;4.18;2.85;;;3.50;99.90;;;;;;6214242;23;20050;-87
2022/01/28 04:19:20;;;;;;;4.15;2.80;;;3.50;99.90;;;;;;6215441;23;20004;-87
2022/01/28 04:21:46;;;;;;;4.05;2.97;;;3.50;99.90;;;;;;6215727;23;20362;-88
2022/01/28 04:24:12;;;;;;;6.40;3.28;;;3.50;99.90;;;;;;6214134;23;20008;-87
2022/01/28 04:26:37;;;;;;;5.88;3.30;;;3.50;99.90;;;;;;6214155;23;20009;-87
2022/01/28 04:29:03;;;;;;;5.85;3.00;;;3.50;99.90;;;;;;6214053;23;20333;-87
2022/01/28 04:31:29;;;;;;;6.03;3.92;;;3.40;99.90;;;;;;6216405;23;20007;-87
2022/01/28 04:33:55;;;;;;;6.70;3.42;;;3.50;99.90;;;;;;6216061;23;20083;-87
2022/01/28 04:36:24;;;;;;;7.35;3.88;;;3.50;99.90;;;;;;6217878;23;20051;-87
2022/01/28 04:38:58;;;;;;;5.82;3.70;;;3.50;99.90;;;;;;6215827;23;20005;-87
2022/01/28 04:41:34;;;;;;;6.30;3.72;;;3.50;99.90;;;;;;6215972;23;20060;-87
2022/01/28 04:44:08;;;;;;;7.28;3.38;;;3.50;99.90;;;;;;6215987;23;20004;-87
2022/01/28 04:46:44;;;;;;;6.57;3.55;;;3.50;99.90;;;;;;6216004;23;19997;-87
2022/01/28 04:49:20;;;;;;;8.60;4.05;;;3.50;99.90;;;;;;6243593;23;20440;-87
2022/01/28 05:27:55;;;;;;;6.95;3.42;;;3.40;99.90;;;;;;6247382;23;20332;-87
2022/01/28 05:30:21;;;;;;;8.82;4.25;;;3.40;99.90;;;;;;6220351;23;20005;-88
2022/01/28 05:32:47;;;;;;;5.15;3.75;;;3.40;99.90;;;;;;6220458;23;20015;-87
2022/01/28 05:35:12;;;;;;;6.60;4.20;;;3.40;99.90;;;;;;6247590;23;20373;-87
2022/01/28 05:37:38;;;;;;;6.78;4.13;;;3.40;99.90;;;;;;6220645;23;20007;-87
2022/01/28 05:40:04;;;;;;;7.78;4.10;;;3.40;99.90;;;;;;6220315;23;20006;-88
2022/01/28 05:42:30;;;;;;;6.47;3.78;;;3.40;99.90;;;;;;6246918;23;19996;-87
2022/01/28 05:44:56;;;;;;;5.85;3.63;;;3.40;99.90;;;;;;6220219;23;20006;-87
2022/01/28 05:47:24;;;;;;;6.65;4.07;;;3.40;99.90;;;;;;6246918;23;20073;-87
2022/01/28 05:49:50;;;;;;;5.97;3.65;;;3.40;99.90;;;;;;6220355;23;20012;-87
2022/01/28 05:52:16;;;;;;;5.80;3.80;;;3.40;99.90;;;;;;6220226;23;20011;-87
2022/01/28 05:54:41;;;;;;;6.38;4.03;;;3.40;99.90;;;;;;6220180;23;20008;-87
2022/01/28 05:57:07;;;;;;;5.88;3.63;;;3.40;99.90;;;;;;6220146;23;20028;-87
2022/01/28 05:59:33;;;;;;;6.57;3.90;;;3.40;99.90;;;;;;6220141;23;20031;-87
2022/01/28 06:01:58;;;;;;;6.13;4.07;;;3.40;99.90;;;;;;6220042;23;20007;-87
2022/01/28 06:04:25;;;;;;;6.35;4.10;;;3.40;99.90;;;;;;6220145;23;20088;-87
2022/01/28 06:06:51;;;;;;;6.80;4.00;;;3.40;99.90;;;;;;6221443;23;20087;-87
2022/01/28 06:09:16;;;;;;;6.38;3.97;;;3.40;99.90;;;;;;6219999;23;20085;-88
2022/01/28 06:11:45;;;;;;;6.35;3.78;;;3.40;99.90;;;;;;6246887;23;20396;-87
2022/01/28 06:14:11;;;;;;;6.78;3.80;;;3.40;99.90;;;;;;6219965;23;20047;-87
2022/01/28 06:16:37;;;;;;;7.40;4.38;;;3.40;99.90;;;;;;6219942;23;20004;-87
2022/01/28 06:19:02;;;;;;;6.53;3.65;;;3.40;99.90;;;;;;6246758;23;20004;-87
2022/01/28 06:21:28;;;;;;;8.88;3.70;;;3.40;99.90;;;;;;6246779;23;20386;-88
2022/01/28 06:23:55;;;;;;;6.00;3.88;;;3.40;99.90;;;;;;6220043;23;20096;-88
2022/01/28 06:26:22;;;;;;;9.32;4.10;;;3.40;99.90;;;;;;6246750;23;20038;-87
2022/01/28 06:28:47;;;;;;;5.30;3.90;;;3.40;99.90;;;;;;6219906;23;20012;-87
2022/01/28 06:31:13;;;;;;;6.22;3.55;;;3.40;99.90;;;;;;6246748;23;20436;-87
2022/01/28 06:33:39;;;;;;;5.78;3.47;;;3.40;99.90;;;;;;6246744;23;20000;-87
2022/01/28 06:36:05;;;;;;;7.68;4.57;;;3.40;99.90;;;;;;6219937;23;20396;-87
2022/01/28 06:38:31;;;;;;;6.53;3.42;;;3.40;99.90;;;;;;6219674;23;20336;-87
2022/01/28 06:40:57;;;;;;;8.40;3.83;;;3.40;99.90;;;;;;6219816;23;20083;-88
2022/01/28 06:43:22;;;;;;;6.97;3.97;;;3.40;99.90;;;;;;6219823;23;20043;-87
2022/01/28 06:45:48;;;;;;;6.57;3.72;;;3.40;99.90;;;;;;6219848;23;20438;-87
2022/01/28 06:48:16;;;;;;;5.07;3.45;;;3.40;99.90;;;;;;6214582;23;20017;-87
2022/01/28 06:50:43;;;;;;;4.90;3.53;;;3.40;99.90;;;;;;6214700;23;20005;-87
2022/01/28 06:53:10;;;;;;;5.85;3.97;;;3.30;99.90;;;;;;6214699;23;20004;-87
2022/01/28 06:55:37;;;;;;;7.18;4.18;;;3.40;99.90;;;;;;6214491;23;20005;-87
2022/01/28 06:58:05;;;;;;;6.28;3.65;;;3.40;99.90;;;;;;6216203;23;20000;-87
2022/01/28 07:00:36;;;;;;;9.70;4.40;;;3.40;99.90;;;;;;6214604;23;20341;-87
2022/01/28 07:03:05;;;;;;;6.93;4.07;;;3.40;99.90;;;;;;6214576;23;20005;-88
2022/01/28 07:05:30;;;;;;;6.50;4.10;;;3.40;99.90;;;;;;6214471;23;20031;-87
2022/01/28 07:07:56;;;;;;;6.55;3.95;;;3.40;99.90;;;;;;6215618;23;20001;-88
2022/01/28 07:10:22;;;;;;;7.97;4.25;;;3.40;99.90;;;;;;6214592;23;20012;-87
2022/01/28 07:12:48;;;;;;;6.78;3.88;;;3.40;99.90;;;;;;6214502;23;20040;-87
2022/01/28 07:15:13;;;;;;;5.38;3.92;;;3.40;99.90;;;;;;6214478;23;20007;-87
2022/01/28 07:17:39;;;;;;;8.85;4.50;;;3.40;99.90;;;;;;6214469;23;20430;-87
2022/01/28 07:20:06;;;;;;;8.68;4.10;;;3.40;99.90;;;;;;6214417;23;20385;-87
2022/01/28 07:22:32;;;;;;;8.10;4.45;;;3.40;99.90;;;;;;6216360;23;19998;-87
2022/01/28 07:24:57;;;;;;;10.27;4.25;;;3.40;99.90;;;;;;6215952;23;20058;-86
2022/01/28 07:27:23;;;;;;;7.50;4.35;;;3.40;99.90;;;;;;6214460;23;20001;-87
2022/01/28 07:29:50;;;;;;;7.88;4.22;;;3.40;99.90;;;;;;6214378;23;20004;-87
2022/01/28 07:32:17;;;;;;;8.50;4.38;;;3.40;99.90;;;;;;6214479;23;20011;-86
2022/01/28 07:34:43;;;;;;;7.15;4.22;;;3.40;99.90;;;;;;6214371;23;20009;-87
2022/01/28 07:37:09;;;;;;;6.13;3.78;;;3.40;99.90;;;;;;6214376;23;20004;-87
2022/01/28 07:39:35;;;;;;;6.88;4.00;;;3.40;99.90;;;;;;6215779;23;20004;-87
2022/01/28 07:42:00;;;;;;;6.75;4.07;;;3.50;99.90;;;;;;6215812;23;20475;-87
2022/01/28 07:44:26;;;;;;;6.25;4.40;;;3.50;99.90;;;;;;6214347;23;20004;-87
2022/01/28 07:46:52;;;;;;;6.95;3.83;;;3.70;99.90;;;;;;6214683;23;20425;-87
2022/01/28 07:49:17;;;;;;;5.70;4.20;;;4.10;99.90;;;;;;6243448;23;20090;-87
2022/01/28 07:51:43;;;;;;;6.22;4.05;;;4.10;99.90;;;;;;6219257;23;20054;-87
2022/01/28 07:54:09;;;;;;;6.75;4.20;;;4.20;99.90;;;;;;6219282;23;20015;-87
2022/01/28 07:56:35;;;;;;;7.63;4.30;;;4.60;99.90;;;;;;6246106;23;20396;-87
2022/01/28 07:59:02;;;;;;;7.45;4.07;;;5.00;99.90;;;;;;6219133;23;20023;-87
2022/01/28 08:01:27;;;;;;;5.32;3.75;;;5.40;99.90;;;;;;6219290;23;20004;-87
2022/01/28 08:03:53;;;;;;;8.13;4.22;;;5.70;99.90;;;;;;6219812;23;20010;-87
2022/01/28 08:06:19;;;;;;;7.03;4.10;;;6.10;99.90;;;;;;6219626;23;20421;-87
2022/01/28 08:08:44;;;;;;;5.95;3.50;;;6.60;99.90;;;;;;6248099;23;20027;-87
2022/01/28 08:11:10;;;;;;;8.77;4.70;;;6.90;99.90;;;;;;6221271;23;20009;-87
2022/01/28 08:13:36;;;;;;;6.43;3.70;;;7.10;99.90;;;;;;6221195;23;20011;-88
2022/01/28 08:16:02;;;;;;;6.93;4.20;;;7.20;99.90;;;;;;6221163;23;20004;-88
2022/01/28 08:18:27;;;;;;;6.20;3.72;;;7.40;99.90;;;;;;6221013;23;20061;-88
2022/01/28 08:20:53;;;;;;;6.68;3.97;;;7.70;99.90;;;;;;6221127;23;20005;-87
2022/01/28 08:23:19;;;;;;;6.65;3.88;;;7.90;99.90;;;;;;6221151;23;20004;-87
2022/01/28 08:25:45;;;;;;;6.78;4.40;;;8.20;99.90;;;;;;6221139;23;20011;-87
2022/01/28 08:28:11;;;;;;;5.10;3.67;;;7.70;99.90;;;;;;6221070;23;20451;-87
2022/01/28 08:30:40;;;;;;;7.13;3.72;;;7.20;99.90;;;;;;6221699;23;20042;-91
2022/01/28 08:33:07;;;;;;;14.32;5.40;;;7.50;99.90;;;;;;6222496;23;20004;-89
2022/01/28 08:35:37;;;;;;;11.13;4.88;;;10.80;99.90;;;;;;6249383;23;20023;-89
2022/01/28 08:38:12;;;;;;;13.05;4.60;;;12.60;99.90;;;;;;6221286;23;20005;-88
2022/01/28 08:40:39;;;;;;;9.25;4.60;;;13.30;99.90;;;;;;6248164;23;20056;-93
2022/01/28 08:43:06;;;;;;;11.38;5.90;;;16.40;99.90;;;;;;6221637;23;20004;-90
2022/01/28 08:45:31;;;;;;;10.25;4.72;;;18.20;96.60;;;;;;6221373;23;20000;-89
2022/01/28 08:47:57;;;;;;;6.80;4.07;;;17.80;93.60;;;;;;6221136;23;20031;-89
2022/01/28 08:50:23;;;;;;;7.53;3.80;;;17.50;91.70;;;;;;6221330;23;20000;-89
2022/01/28 08:52:49;;;;;;;12.88;4.25;;;17.10;93.00;;;;;;6248311;23;20003;-86
2022/01/28 08:55:15;;;;;;;9.02;4.43;;;14.30;94.30;;;;;;6220837;23;20004;-87
2022/01/28 08:57:43;;;;;;;11.10;4.40;;;11.50;98.50;;;;;;6221053;23;20038;-87
2022/01/28 09:00:12;;;;;;;9.65;4.43;;;9.60;99.90;;;;;;6220535;23;20447;-87
2022/01/28 09:02:38;;;;;;;12.32;4.30;;;8.30;99.90;;;;;;6220957;23;20428;-87
2022/01/28 09:05:04;;;;;;;8.40;3.67;;;7.60;99.90;;;;;;6220628;23;20004;-87
2022/01/28 09:07:29;;;;;;;13.48;4.63;;;9.00;99.90;;;;;;6220739;23;20491;-87
2022/01/28 09:10:02;;;;;;;8.40;4.13;;;8.90;99.90;;;;;;6247453;23;20000;-87
2022/01/28 09:12:35;;;;;;;9.18;4.35;;;8.10;99.90;;;;;;6247482;23;20000;-87
2022/01/28 09:15:03;;;;;;;9.40;4.30;;;7.30;99.90;;;;;;6220589;23;20001;-87
2022/01/28 09:17:29;;;;;;;8.18;4.28;;;6.80;99.90;;;;;;6220231;23;20333;-86
2022/01/28 09:19:55;;;;;;;8.32;4.00;;;6.30;99.90;;;;;;6220335;23;20489;-86
2022/01/28 09:22:21;;;;;;;11.30;4.43;;;5.90;99.90;;;;;;6220582;23;20005;-87
2022/01/28 09:24:46;;;;;;;10.35;4.30;;;5.70;99.90;;;;;;6247386;23;20320;-87
2022/01/28 09:27:12;;;;;;;6.40;3.83;;;5.60;99.90;;;;;;6247374;23;20057;-87
2022/01/28 09:29:38;;;;;;;10.27;3.65;;;6.60;99.90;;;;;;6220469;23;20008;-87
2022/01/28 09:32:05;;;;;;;8.05;3.78;;;7.20;99.90;;;;;;6220310;23;20082;-88
2022/01/28 09:34:31;;;;;;;7.55;3.45;;;7.70;99.90;;;;;;6220283;23;20004;-87
2022/01/28 09:36:57;;;;;;;8.75;4.00;;;7.70;99.90;;;;;;6220426;23;20011;-87
2022/01/28 09:39:24;;;;;;;8.38;4.03;;;7.60;99.90;;;;;;6220256;23;20079;-86
2022/01/28 09:41:51;;;;;;;8.77;3.75;;;7.30;99.90;;;;;;6220304;23;20336;-86
2022/01/28 09:44:21;;;;;;;7.32;3.35;;;6.80;99.90;;;;;;6220505;23;20083;-87
2022/01/28 09:46:47;;;;;;;9.73;3.70;;;6.40;99.90;;;;;;6220209;23;20454;-87
2022/01/28 09:49:12;;;;;;;9.10;3.70;;;6.30;99.90;;;;;;6220088;23;20016;-86
2022/01/28 09:51:38;;;;;;;8.88;4.40;;;6.00;99.90;;;;;;6220170;23;20039;-87
2022/01/28 09:54:04;;;;;;;8.38;3.55;;;5.70;99.90;;;;;;6220309;23;20011;-86
2022/01/28 09:56:31;;;;;;;5.75;3.20;;;5.40;99.90;;;;;;6220311;23;20008;-87
2022/01/28 09:58:57;;;;;;;5.38;3.70;;;5.30;99.90;;;;;;6247047;23;20122;-86
2022/01/28 10:01:24;;;;;;;10.02;4.07;;;5.20;99.90;;;;;;6220012;23;19997;-87
2022/01/28 10:04:03;;;;;;;7.03;3.80;;;5.10;99.90;;;;;;6220107;23;20008;-87
2022/01/28 10:06:35;;;;;;;4.78;2.90;;;5.00;99.90;;;;;;6220082;23;20008;-86
2022/01/28 10:09:10;;;;;;;6.45;3.67;;;4.90;99.90;;;;;;6220112;23;20451;-86
2022/01/28 10:11:37;;;;;;;6.95;3.65;;;4.80;99.90;;;;;;6220168;23;20009;-86
2022/01/28 10:14:11;;;;;;;6.50;3.25;;;4.80;99.90;;;;;;6220070;23;20087;-86
2022/01/28 10:16:36;;;;;;;7.55;3.15;;;4.80;99.90;;;;;;6220406;23;20004;-86
2022/01/28 10:19:07;;;;;;;8.57;4.40;;;4.70;99.90;;;;;;6219898;23;20015;-86
2022/01/28 10:21:43;;;;;;;7.50;3.00;;;4.70;99.90;;;;;;6220061;23;20024;-86
2022/01/28 10:24:22;;;;;;;7.90;3.17;;;4.60;99.90;;;;;;6219876;23;20050;-86
2022/01/28 10:26:49;;;;;;;5.07;3.10;;;4.60;99.90;;;;;;6219920;23;20008;-86
2022/01/28 10:29:19;;;;;;;8.85;3.17;;;4.60;99.90;;;;;;6219410;23;20492;-86
2022/01/28 10:31:48;;;;;;;7.90;3.30;;;4.60;99.90;;;;;;6247101;23;20329;-85
2022/01/28 10:34:17;;;;;;;5.70;2.97;;;4.70;99.90;;;;;;6219900;23;20004;-86
2022/01/28 10:36:44;;;;;;;10.88;3.60;;;4.80;99.90;;;;;;6219726;23;20004;-86
2022/01/28 10:39:15;;;;;;;6.45;3.17;;;4.90;99.90;;;;;;6219593;23;20008;-87
2022/01/28 10:41:56;;;;;;;6.28;2.80;;;5.10;99.90;;;;;;6247007;23;20079;-86
2022/01/28 10:44:24;;;;;;;8.57;3.28;;;5.20;99.90;;;;;;6219799;23;20000;-87
2022/01/28 10:47:03;;;;;;;6.80;3.13;;;5.20;99.90;;;;;;6219784;23;20380;-87
2022/01/28 10:49:34;;;;;;;6.85;2.92;;;5.20;99.90;;;;;;6246217;23;20039;-87
2022/01/28 10:52:13;;;;;;;8.38;3.13;;;5.10;99.90;;;;;;6219660;23;20066;-86
2022/01/28 10:54:41;;;;;;;3.95;2.45;;;5.20;99.90;;;;;;6219730;23;20006;-87
2022/01/28 10:57:10;;;;;;;5.65;3.10;;;5.30;99.90;;;;;;6246424;23;20066;-87
2022/01/28 10:59:41;;;;;;;7.35;3.50;;;5.50;99.90;;;;;;6219943;23;20008;-86
2022/01/28 11:02:07;;;;;;;6.63;2.67;;;5.50;99.90;;;;;;6219634;23;20498;-87
2022/01/28 11:04:34;;;;;;;6.70;2.92;;;5.70;99.90;;;;;;6246328;23;20000;-87
2022/01/28 11:07:01;;;;;;;6.88;2.80;;;5.80;99.90;;;;;;6219464;23;20000;-87
2022/01/28 11:09:27;;;;;;;7.85;2.88;;;5.80;99.90;;;;;;6219554;23;20062;-87
2022/01/28 11:11:53;;;;;;;5.72;2.65;;;5.90;99.90;;;;;;6219446;23;20004;-86
2022/01/28 11:14:20;;;;;;;4.65;2.35;;;5.90;99.90;;;;;;6219492;23;20007;-87
2022/01/28 11:16:46;;;;;;;4.18;2.50;;;5.90;99.90;;;;;;6220572;23;20030;-88
2022/01/28 11:19:17;;;;;;;5.28;2.40;;;6.00;99.90;;;;;;6246249;23;20028;-87
2022/01/28 11:22:00;;;;;;;6.38;2.47;;;6.10;99.90;;;;;;6246331;23;20049;-87
2022/01/28 11:24:45;;;;;;;5.43;2.95;;;6.10;99.90;;;;;;6219354;23;20338;-88
2022/01/28 11:27:27;;;;;;;4.63;2.60;;;6.20;99.90;;;;;;6219514;23;20008;-88
2022/01/28 11:30:30;;;;;;;5.03;2.65;;;6.30;99.90;;;;;;6219409;23;20153;-87
2022/01/28 11:33:05;;;;;;;7.45;2.55;;;6.30;99.90;;;;;;6246186;23;20444;-87
2022/01/28 11:35:37;;;;;;;4.32;2.30;;;6.30;99.90;;;;;;6219141;23;20085;-87
2022/01/28 11:38:26;;;;;;;4.85;2.10;;;6.30;99.90;;;;;;6219200;23;20004;-87
2022/01/28 11:40:57;;;;;;;5.25;2.92;;;6.30;99.90;;;;;;6219112;23;20004;-87
2022/01/28 11:43:29;;;;;;;4.60;2.40;;;6.30;99.90;;;;;;6246119;23;20000;-87
2022/01/28 11:46:19;;;;;;;6.47;2.70;;;6.20;99.90;;;;;;6219182;23;20420;-87
2022/01/28 11:49:02;;;;;;;4.90;2.50;;;6.00;99.90;;;;;;6214324;23;20453;-85
2022/01/28 11:51:38;;;;;;;8.25;2.42;;;5.90;99.90;;;;;;6214284;23;20426;-86
2022/01/28 11:54:06;;;;;;;4.90;2.20;;;5.80;99.90;;;;;;6215672;23;20062;-87
2022/01/28 11:56:32;;;;;;;7.75;2.33;;;5.60;99.90;;;;;;6215808;23;20076;-87
2022/01/28 11:59:08;;;;;;;7.78;2.63;;;5.60;99.90;;;;;;6214068;23;20008;-86
2022/01/28 12:01:40;;;;;;;6.03;2.08;;;5.50;99.90;;;;;;6215676;23;20024;-86
2022/01/28 12:04:27;;;;;;;10.50;2.53;;;5.50;99.90;;;;;;6214171;23;20055;-87
2022/01/28 12:07:19;;;;;;;4.07;1.98;;;5.40;99.90;;;;;;6215607;23;20000;-86
2022/01/28 12:09:48;;;;;;;6.10;2.47;;;5.40;99.90;;;;;;6214092;23;20032;-86
2022/01/28 12:12:20;;;;;;;7.32;2.50;;;5.40;99.90;;;;;;6214103;23;20015;-87
2022/01/28 12:14:49;;;;;;;8.30;2.63;;;5.40;99.90;;;;;;6214126;23;20015;-87
2022/01/28 12:17:30;;;;;;;7.18;2.63;;;5.40;99.90;;;;;;6215657;23;20000;-87
2022/01/28 12:20:15;;;;;;;8.02;2.60;;;5.40;99.90;;;;;;6214058;23;20015;-86
2022/01/28 12:22:59;;;;;;;6.50;2.40;;;5.40;99.90;;;;;;6214075;23;20012;-86
2022/01/28 12:25:43;;;;;;;5.60;2.17;;;5.30;99.90;;;;;;6216016;23;20004;-87
2022/01/28 12:28:24;;;;;;;4.88;2.05;;;5.40;99.90;;;;;;6214053;23;20059;-86
2022/01/28 12:30:51;;;;;;;5.40;2.17;;;5.30;99.90;;;;;;6213898;23;20001;-86
2022/01/28 12:33:25;;;;;;;5.97;2.20;;;5.30;99.90;;;;;;6214010;23;20075;-86
2022/01/28 12:35:53;;;;;;;7.75;2.58;;;5.20;99.90;;;;;;6214015;23;20005;-86
2022/01/28 12:38:25;;;;;;;5.97;2.03;;;5.20;99.90;;;;;;6213978;23;20032;-86
2022/01/28 12:40:54;;;;;;;5.65;2.13;;;5.20;99.90;;;;;;6214170;23;20494;-86
2022/01/28 12:43:22;;;;;;;5.13;2.30;;;5.20;99.90;;;;;;6214026;23;20009;-87
2022/01/28 12:46:09;;;;;;;6.25;2.10;;;5.10;99.90;;;;;;6214087;23;20001;-86
2022/01/28 12:48:36;;;;;;;6.65;2.40;;;5.10;99.90;;;;;;6214319;23;20016;-87
2022/01/28 12:51:03;;;;;;;5.05;1.80;;;5.10;99.90;;;;;;6214116;23;20005;-88
2022/01/28 12:53:39;;;;;;;4.30;2.13;;;5.20;99.90;;;;;;6215486;23;20091;-86
2022/01/28 12:56:07;;;;;;;5.40;2.13;;;5.20;99.90;;;;;;6215973;23;20078;-87
2022/01/28 12:58:38;;;;;;;4.00;1.85;;;5.20;99.90;;;;;;6217349;23;19997;-86
2022/01/28 13:01:11;;;;;;;5.85;2.42;;;5.30;99.90;;;;;;6216243;23;20005;-86
2022/01/28 13:03:47;;;;;;;8.38;3.13;;;5.30;99.90;;;;;;6216300;23;20381;-87
2022/01/28 13:09:21;;;;;;;8.48;2.92;;;5.60;99.90;;;;;;6228097;23;20011;-86
2022/01/28 13:12:00;;;;;;;7.03;3.22;;;5.50;99.90;;;;;;6216797;23;20326;-86
2022/01/28 13:14:34;;;;;;;11.73;3.45;;;5.40;99.90;;;;;;6217331;23;20012;-87
2022/01/28 13:17:06;;;;;;;8.13;3.28;;;5.30;99.90;;;;;;6215725;23;20013;-87
2022/01/28 13:19:32;;;;;;;8.77;3.83;;;5.30;99.90;;;;;;6215600;23;20472;-87
2022/01/28 13:21:58;;;;;;;6.40;3.47;;;5.20;99.90;;;;;;6215619;23;20005;-86
2022/01/28 13:24:26;;;;;;;9.82;3.60;;;5.20;99.90;;;;;;6215622;23;20039;-86
2022/01/28 13:27:01;;;;;;;5.72;3.35;;;5.10;99.90;;;;;;6215569;23;20129;-86
2022/01/28 13:29:51;;;;;;;10.02;3.90;;;5.10;99.90;;;;;;6216010;23;20055;-87
2022/01/28 13:32:19;;;;;;;8.63;4.20;;;5.00;99.90;;;;;;6215578;23;20016;-87
2022/01/28 13:34:54;;;;;;;8.27;3.92;;;5.00;99.90;;;;;;6217170;23;20067;-87
2022/01/28 13:37:44;;;;;;;8.77;3.58;;;5.00;99.90;;;;;;6215544;23;20004;-87
2022/01/28 13:40:33;;;;;;;5.03;3.22;;;5.00;99.90;;;;;;6217203;23;20012;-86
2022/01/28 13:43:17;;;;;;;6.95;3.60;;;5.00;99.90;;;;;;6215547;23;20059;-87
2022/01/28 13:45:53;;;;;;;10.43;4.18;;;5.00;99.90;;;;;;6217034;23;20492;-87
2022/01/28 13:48:21;;;;;;;7.97;3.60;;;4.90;99.90;;;;;;6232124;23;20463;-86
2022/01/28 13:50:49;;;;;;;7.13;3.83;;;4.90;99.90;;;;;;6220429;23;19996;-86
2022/01/28 13:56:04;;;;;;;9.75;3.58;;;4.80;99.90;;;;;;6257814;23;20087;-86
2022/01/28 13:58:51;;;;;;;6.80;3.58;;;4.80;99.90;;;;;;6247451;23;20417;-87
2022/01/28 14:01:18;;;;;;;8.93;3.42;;;4.70;99.90;;;;;;6220430;23;20004;-87
2022/01/28 14:03:48;;;;;;;9.43;4.28;;;4.70;99.90;;;;;;6220113;23;20000;-87
2022/01/28 14:06:26;;;;;;;5.32;3.42;;;4.70;99.90;;;;;;6247047;23;20001;-86
2022/01/28 14:08:55;;;;;;;8.30;4.00;;;4.70;99.90;;;;;;6220167;23;20031;-86
2022/01/28 14:11:27;;;;;;;7.95;3.60;;;4.60;99.90;;;;;;6220228;23;20341;-87
2022/01/28 14:14:22;;;;;;;7.10;3.80;;;4.60;99.90;;;;;;6220240;23;20016;-87
2022/01/28 14:16:47;;;;;;;8.32;4.25;;;4.60;99.90;;;;;;6247339;23;20000;-86
2022/01/28 14:19:14;;;;;;;8.45;3.60;;;4.60;99.90;;;;;;6246860;23;20004;-86
2022/01/28 14:21:44;;;;;;;6.88;4.28;;;4.60;99.90;;;;;;6219941;23;20007;-86
2022/01/28 14:24:14;;;;;;;10.38;5.15;;;4.60;99.90;;;;;;6220070;23;20004;-87
2022/01/28 14:26:42;;;;;;;8.40;4.00;;;4.60;99.90;;;;;;6220061;23;20006;-86
2022/01/28 14:29:36;;;;;;;9.18;4.50;;;4.60;99.90;;;;;;6220032;23;20083;-86
2022/01/28 14:32:05;;;;;;;7.35;4.20;;;4.60;99.90;;;;;;6246888;23;20429;-87
2022/01/28 14:34:31;;;;;;;7.90;4.07;;;4.60;99.90;;;;;;6219972;23;20007;-87
2022/01/28 14:36:57;;;;;;;8.05;4.53;;;4.70;99.90;;;;;;6219936;23;20000;-87
2022/01/28 14:39:23;;;;;;;7.43;4.10;;;4.60;99.90;;;;;;6219698;23;20430;-87
2022/01/28 14:41:50;;;;;;;12.75;4.70;;;4.60;99.90;;;;;;6219977;23;19996;-87